Time;durP1;ratioP1;P1;durP2;ratioP2;P2;SDS_P1;SDS_P2;PMS_P1;PMS_P2;Temp;Humidity;BMP_temperature;BMP_pressure;BME280_temperature;BME280_humidity;BME280_pressure;Samples;Min_cycle;Max_cycle;Signal;HPM_P1;HPM_P2
2022/07/18 00:02:20;;;;;;;11.73;6.15;;;29.30;54.60;;;;;;5056419;28;20028;-74
2022/07/18 00:04:46;;;;;;;12.40;6.05;;;29.20;53.80;;;;;;5055137;28;20041;-75
2022/07/18 00:07:13;;;;;;;10.18;5.60;;;29.20;53.10;;;;;;5055305;28;20123;-73
2022/07/18 00:09:43;;;;;;;9.43;5.65;;;29.20;52.80;;;;;;5056218;28;20109;-73
2022/07/18 00:12:11;;;;;;;10.57;5.43;;;29.10;51.90;;;;;;5056584;28;20040;-74
2022/07/18 00:14:37;;;;;;;8.43;5.32;;;29.10;51.60;;;;;;5055939;28;20060;-72
2022/07/18 00:17:05;;;;;;;10.43;5.75;;;29.10;51.20;;;;;;5056304;28;20025;-77
2022/07/18 00:19:31;;;;;;;14.13;5.22;;;29.10;50.90;;;;;;5056375;28;20043;-74
2022/07/18 00:21:56;;;;;;;13.45;5.55;;;29.10;50.80;;;;;;5056405;28;20036;-75
2022/07/18 00:24:22;;;;;;;13.07;6.25;;;29.00;50.60;;;;;;5056092;28;20017;-74
2022/07/18 00:26:48;;;;;;;10.25;5.82;;;29.00;50.90;;;;;;5056006;28;20513;-77
2022/07/18 00:29:14;;;;;;;12.15;5.68;;;29.10;49.90;;;;;;5056349;28;20025;-74
2022/07/18 00:31:39;;;;;;;9.15;5.55;;;29.10;49.80;;;;;;5056267;28;20029;-76
2022/07/18 00:34:05;;;;;;;14.02;5.22;;;29.10;49.50;;;;;;5056043;28;20033;-75
2022/07/18 00:36:31;;;;;;;7.93;5.25;;;29.10;49.50;;;;;;5055954;28;20017;-74
2022/07/18 00:38:58;;;;;;;11.75;5.57;;;29.10;49.20;;;;;;5056107;28;20094;-74
2022/07/18 00:41:24;;;;;;;10.52;5.43;;;29.10;49.40;;;;;;5054970;28;20025;-74
2022/07/18 00:43:50;;;;;;;10.85;5.97;;;29.10;48.90;;;;;;5056196;28;20021;-75
2022/07/18 00:46:19;;;;;;;10.18;5.65;;;29.10;48.80;;;;;;5055960;28;20482;-75
2022/07/18 00:48:45;;;;;;;9.43;5.40;;;29.10;48.70;;;;;;5056187;28;20020;-74
2022/07/18 00:51:11;;;;;;;9.52;5.20;;;29.10;48.60;;;;;;5055862;28;20021;-77
2022/07/18 00:53:37;;;;;;;10.00;5.00;;;29.10;48.30;;;;;;5055397;28;20041;-75
2022/07/18 00:56:04;;;;;;;10.40;5.50;;;29.10;48.30;;;;;;5055259;28;20049;-75
2022/07/18 00:58:30;;;;;;;8.25;5.07;;;29.10;47.90;;;;;;5055787;28;20025;-73
2022/07/18 01:03:41;;;;;;;11.27;4.93;;;29.10;47.50;;;;;;5056045;28;20087;-74
2022/07/18 01:06:07;;;;;;;8.07;5.07;;;29.00;47.70;;;;;;5055319;28;20151;-77
2022/07/18 01:08:35;;;;;;;9.07;4.93;;;29.00;47.70;;;;;;5055727;28;20419;-73
2022/07/18 01:11:00;;;;;;;8.57;4.70;;;29.00;47.70;;;;;;5055353;28;20383;-73
2022/07/18 01:13:26;;;;;;;7.15;4.60;;;28.90;47.60;;;;;;5055454;28;20033;-77
2022/07/18 01:15:52;;;;;;;8.35;5.03;;;28.90;47.60;;;;;;5055302;28;20025;-72
2022/07/18 01:18:18;;;;;;;14.90;5.30;;;28.90;47.70;;;;;;5055267;28;20029;-73
2022/07/18 01:20:43;;;;;;;7.90;4.80;;;28.90;47.20;;;;;;5055264;28;20021;-72
2022/07/18 01:23:09;;;;;;;7.03;4.85;;;28.90;47.30;;;;;;5055238;28;20470;-73
2022/07/18 01:25:35;;;;;;;9.20;5.25;;;28.80;47.30;;;;;;5055306;28;20025;-72
2022/07/18 01:28:01;;;;;;;8.05;4.75;;;28.80;47.30;;;;;;5054985;28;20111;-74
2022/07/18 01:30:26;;;;;;;11.45;4.70;;;28.80;47.20;;;;;;5055647;28;20021;-73
2022/07/18 01:32:58;;;;;;;10.98;4.50;;;28.80;46.90;;;;;;5054966;28;20430;-72
2022/07/18 01:35:24;;;;;;;6.25;4.38;;;28.80;46.90;;;;;;5054917;28;20028;-72
2022/07/18 01:37:55;;;;;;;8.25;4.35;;;28.80;46.90;;;;;;5054937;28;20045;-72
2022/07/18 01:40:21;;;;;;;8.60;4.28;;;28.80;46.70;;;;;;5054799;28;20052;-74
2022/07/18 01:42:47;;;;;;;8.48;4.28;;;28.80;46.50;;;;;;5055414;28;20149;-74
2022/07/18 01:45:13;;;;;;;10.00;4.63;;;28.80;46.50;;;;;;5054497;28;20020;-75
2022/07/18 01:47:39;;;;;;;9.05;4.18;;;28.80;46.40;;;;;;5053994;28;20067;-75
2022/07/18 01:50:06;;;;;;;6.68;4.40;;;28.70;46.40;;;;;;5054554;28;20020;-78
2022/07/18 01:52:31;;;;;;;8.05;4.40;;;28.70;46.10;;;;;;5054954;28;20025;-75
2022/07/18 01:54:57;;;;;;;9.68;4.18;;;28.70;46.20;;;;;;5054318;28;20028;-73
2022/07/18 01:57:23;;;;;;;6.35;4.05;;;28.70;46.30;;;;;;5054431;28;20178;-74
2022/07/18 01:59:49;;;;;;;8.80;4.00;;;28.70;46.40;;;;;;5053079;28;20036;-75
2022/07/18 02:02:15;;;;;;;7.28;4.18;;;28.70;46.30;;;;;;5054281;28;20427;-72
2022/07/18 02:05:00;;;;;;;7.53;4.10;;;28.70;46.60;;;;;;5054022;28;20486;-73
2022/07/18 02:07:40;;;;;;;10.23;4.55;;;28.60;45.70;;;;;;5053998;28;20017;-76
2022/07/18 02:10:13;;;;;;;7.72;4.38;;;28.60;46.50;;;;;;5054140;28;20115;-75
2022/07/18 02:12:39;;;;;;;9.27;4.63;;;28.50;46.70;;;;;;5053906;28;20021;-74
2022/07/18 02:15:07;;;;;;;8.43;4.53;;;28.50;46.70;;;;;;5052353;28;20037;-76
2022/07/18 02:17:33;;;;;;;15.32;4.60;;;28.60;46.60;;;;;;5053717;28;20071;-74
2022/07/18 02:19:59;;;;;;;9.05;5.05;;;28.60;46.70;;;;;;5054078;28;20029;-73
2022/07/18 02:22:25;;;;;;;11.13;4.45;;;28.60;46.70;;;;;;5054005;28;20021;-74
2022/07/18 02:24:51;;;;;;;9.15;4.25;;;28.60;46.80;;;;;;5053849;28;20021;-74
2022/07/18 02:27:18;;;;;;;6.65;4.20;;;28.50;47.00;;;;;;5053871;28;20027;-75
2022/07/18 02:29:43;;;;;;;8.27;4.43;;;28.60;46.80;;;;;;5053767;28;20021;-76
2022/07/18 02:32:09;;;;;;;7.68;4.50;;;28.60;46.70;;;;;;5053933;28;20556;-74
2022/07/18 02:34:35;;;;;;;9.45;4.97;;;28.60;46.80;;;;;;5053584;28;20400;-72
2022/07/18 02:37:01;;;;;;;8.07;4.28;;;28.60;46.80;;;;;;5053499;28;20462;-72
2022/07/18 02:39:28;;;;;;;10.60;4.40;;;28.60;46.90;;;;;;5053563;28;20029;-76
2022/07/18 02:41:54;;;;;;;7.68;4.40;;;28.60;46.60;;;;;;5053582;28;20049;-74
2022/07/18 02:44:20;;;;;;;8.38;4.60;;;28.50;46.80;;;;;;5053769;28;20426;-75
2022/07/18 02:46:46;;;;;;;11.35;4.40;;;28.40;46.90;;;;;;5053540;28;20021;-73
2022/07/18 02:49:26;;;;;;;9.50;4.32;;;28.40;46.90;;;;;;5053530;28;20032;-75
2022/07/18 02:51:56;;;;;;;7.97;4.15;;;28.40;47.00;;;;;;5053445;28;20520;-74
2022/07/18 02:54:23;;;;;;;12.23;4.50;;;28.30;46.10;;;;;;5053150;28;20397;-76
2022/07/18 02:56:49;;;;;;;11.35;4.55;;;28.30;47.40;;;;;;5052918;28;20132;-73
2022/07/18 02:59:15;;;;;;;8.68;4.70;;;28.30;47.10;;;;;;5053146;28;20036;-75
2022/07/18 03:01:41;;;;;;;8.40;4.80;;;28.30;47.20;;;;;;5053027;28;20021;-74
2022/07/18 03:04:06;;;;;;;8.25;4.57;;;28.30;47.10;;;;;;5054578;28;20049;-76
2022/07/18 03:06:32;;;;;;;8.95;4.75;;;28.30;47.30;;;;;;5054426;28;20026;-74
2022/07/18 03:08:58;;;;;;;11.32;4.82;;;28.30;47.10;;;;;;5052163;28;20029;-75
2022/07/18 03:11:23;;;;;;;11.30;4.32;;;28.30;47.30;;;;;;5053295;28;20025;-74
2022/07/18 03:13:49;;;;;;;9.05;4.50;;;28.20;47.40;;;;;;5053349;28;20033;-72
2022/07/18 03:16:15;;;;;;;9.95;4.68;;;28.20;47.50;;;;;;5053161;28;20465;-73
2022/07/18 03:18:40;;;;;;;11.43;4.72;;;28.20;47.70;;;;;;5053349;28;20025;-74
2022/07/18 03:21:06;;;;;;;9.43;4.93;;;28.20;47.50;;;;;;5055309;28;20021;-73
2022/07/18 03:23:32;;;;;;;8.57;4.75;;;28.20;47.40;;;;;;5056046;28;20036;-75
2022/07/18 03:25:58;;;;;;;9.45;4.30;;;28.10;47.50;;;;;;5053678;28;20035;-74
2022/07/18 03:28:23;;;;;;;7.53;4.75;;;28.10;47.30;;;;;;5053119;28;20021;-77
2022/07/18 03:30:49;;;;;;;9.77;4.63;;;28.10;47.50;;;;;;5053188;28;20115;-75
2022/07/18 03:33:15;;;;;;;9.02;4.75;;;28.10;47.40;;;;;;5053162;28;20100;-74
2022/07/18 03:35:40;;;;;;;8.35;4.20;;;28.10;47.10;;;;;;5052728;28;20040;-75
2022/07/18 03:38:06;;;;;;;6.28;4.53;;;28.10;47.20;;;;;;5052885;28;20470;-76
2022/07/18 03:40:32;;;;;;;9.55;5.13;;;28.10;47.40;;;;;;5053204;28;20036;-74
2022/07/18 03:42:58;;;;;;;13.40;5.00;;;28.00;47.30;;;;;;5053256;28;20032;-73
2022/07/18 03:45:24;;;;;;;11.80;5.95;;;28.10;47.40;;;;;;5052854;28;20033;-75
2022/07/18 03:47:49;;;;;;;10.00;4.50;;;28.10;47.20;;;;;;5051230;28;20071;-74
2022/07/18 03:50:15;;;;;;;11.27;5.00;;;28.00;47.30;;;;;;5052758;28;20036;-76
2022/07/18 03:52:41;;;;;;;12.15;5.72;;;28.00;47.30;;;;;;5052715;28;20098;-75
2022/07/18 03:55:07;;;;;;;10.85;4.53;;;28.00;47.40;;;;;;5052976;28;20479;-77
2022/07/18 03:57:33;;;;;;;12.48;5.03;;;27.90;47.60;;;;;;5052604;28;20049;-72
2022/07/18 03:59:59;;;;;;;8.00;4.70;;;27.80;47.90;;;;;;5052722;28;20033;-75
2022/07/18 04:02:25;;;;;;;11.43;5.18;;;27.80;47.80;;;;;;5052750;28;20017;-75
2022/07/18 04:04:50;;;;;;;10.38;5.20;;;27.80;47.80;;;;;;5052797;28;20106;-74
2022/07/18 04:07:16;;;;;;;9.25;4.60;;;27.80;48.20;;;;;;5052601;28;20025;-74
2022/07/18 04:09:42;;;;;;;7.03;4.65;;;27.70;48.20;;;;;;5051279;28;20381;-74
2022/07/18 04:12:07;;;;;;;10.65;5.60;;;27.70;48.10;;;;;;5053450;28;20048;-73
2022/07/18 04:14:33;;;;;;;8.63;5.03;;;27.70;48.20;;;;;;5054595;28;20047;-74
2022/07/18 04:16:59;;;;;;;14.20;5.30;;;27.70;48.20;;;;;;5056209;28;20356;-74
2022/07/18 04:19:25;;;;;;;8.45;4.85;;;27.70;48.40;;;;;;5055945;28;20025;-74
2022/07/18 04:21:50;;;;;;;11.52;4.60;;;27.70;48.40;;;;;;5055859;28;20020;-71
2022/07/18 04:24:16;;;;;;;9.75;4.85;;;27.60;48.20;;;;;;5055944;28;20441;-74
2022/07/18 04:26:42;;;;;;;9.85;4.82;;;27.60;48.30;;;;;;5054387;28;20048;-76
2022/07/18 04:29:08;;;;;;;7.80;4.88;;;27.60;48.30;;;;;;5056005;28;20033;-71
2022/07/18 04:31:33;;;;;;;11.05;4.47;;;27.60;48.40;;;;;;5055808;28;20550;-73
2022/07/18 04:33:59;;;;;;;7.20;4.15;;;27.60;48.40;;;;;;5055719;28;20106;-72
2022/07/18 04:36:25;;;;;;;8.73;4.68;;;27.60;48.60;;;;;;5055548;28;20373;-72
2022/07/18 04:38:51;;;;;;;9.15;4.47;;;27.70;48.70;;;;;;5055494;28;20033;-73
2022/07/18 04:41:19;;;;;;;11.23;4.45;;;27.70;48.70;;;;;;5055485;28;20018;-72
2022/07/18 04:43:45;;;;;;;8.95;4.07;;;27.60;48.80;;;;;;5055522;28;20351;-74
2022/07/18 04:46:11;;;;;;;10.32;4.60;;;27.60;48.90;;;;;;5055428;28;20517;-73
2022/07/18 04:48:38;;;;;;;10.18;4.20;;;27.70;48.80;;;;;;5054262;28;20033;-73
2022/07/18 04:51:04;;;;;;;8.68;4.43;;;27.70;48.60;;;;;;5055564;28;20017;-74
2022/07/18 04:53:30;;;;;;;7.50;4.03;;;27.70;48.60;;;;;;5055501;28;20069;-73
2022/07/18 04:55:56;;;;;;;13.30;4.60;;;27.80;48.70;;;;;;5055592;28;20434;-73
2022/07/18 04:58:22;;;;;;;11.82;4.80;;;27.80;48.70;;;;;;5055280;28;20032;-75
2022/07/18 05:00:48;;;;;;;9.63;4.45;;;27.90;48.80;;;;;;5055247;28;20107;-74
2022/07/18 05:03:14;;;;;;;8.15;4.15;;;27.90;48.60;;;;;;5055238;28;20080;-75
2022/07/18 05:05:40;;;;;;;11.00;4.30;;;27.90;48.70;;;;;;5055145;28;20083;-73
2022/07/18 05:08:06;;;;;;;8.80;3.88;;;27.90;48.50;;;;;;5054854;28;20029;-75
2022/07/18 05:10:32;;;;;;;12.15;4.65;;;28.00;48.60;;;;;;5055256;28;20052;-75
2022/07/18 05:12:58;;;;;;;10.15;4.72;;;28.10;48.60;;;;;;5054944;28;20037;-74
2022/07/18 05:15:25;;;;;;;10.65;4.60;;;28.10;48.40;;;;;;5055024;28;20029;-73
2022/07/18 05:17:51;;;;;;;12.35;4.32;;;28.20;48.60;;;;;;5055526;28;20389;-73
2022/07/18 05:20:21;;;;;;;12.05;4.80;;;28.20;48.60;;;;;;5055454;28;20040;-75
2022/07/18 05:22:47;;;;;;;12.88;4.38;;;28.40;48.50;;;;;;5054805;28;20474;-74
2022/07/18 05:25:13;;;;;;;7.90;4.38;;;28.60;48.00;;;;;;5054611;28;20056;-75
2022/07/18 05:27:40;;;;;;;11.13;4.72;;;28.90;47.90;;;;;;5054652;28;20029;-74
2022/07/18 05:30:08;;;;;;;7.63;4.07;;;29.20;47.40;;;;;;5053227;28;20021;-75
2022/07/18 05:32:34;;;;;;;8.68;3.90;;;29.40;46.90;;;;;;5054362;28;20025;-75
2022/07/18 05:34:59;;;;;;;11.70;4.45;;;29.70;46.50;;;;;;5054857;28;20434;-74
2022/07/18 05:37:26;;;;;;;8.05;4.18;;;30.10;46.30;;;;;;5054535;28;20025;-73
2022/07/18 05:39:51;;;;;;;9.35;4.88;;;30.40;46.20;;;;;;5055086;28;20029;-73
2022/07/18 05:42:18;;;;;;;6.65;3.95;;;30.70;45.40;;;;;;5055407;28;20028;-75
2022/07/18 05:44:44;;;;;;;11.35;4.45;;;31.00;45.00;;;;;;5054105;28;20470;-74
2022/07/18 05:47:10;;;;;;;9.55;4.50;;;31.30;44.70;;;;;;5054174;28;20028;-73
2022/07/18 05:49:36;;;;;;;9.65;4.00;;;31.50;44.20;;;;;;5036057;28;20013;-75
2022/07/18 05:52:01;;;;;;;9.07;4.28;;;31.60;44.00;;;;;;5054222;28;20470;-76
2022/07/18 05:54:27;;;;;;;8.80;4.47;;;31.80;43.70;;;;;;5053735;28;20485;-75
2022/07/18 05:56:53;;;;;;;8.63;3.90;;;32.00;43.10;;;;;;5055273;28;20051;-76
2022/07/18 05:59:20;;;;;;;10.77;4.70;;;32.30;43.00;;;;;;5053991;28;20138;-75
2022/07/18 06:01:46;;;;;;;9.00;4.30;;;32.50;42.80;;;;;;5036045;28;20032;-73
2022/07/18 06:04:11;;;;;;;8.30;4.30;;;32.90;42.10;;;;;;5053596;28;20029;-74
2022/07/18 06:06:38;;;;;;;14.80;4.28;;;33.00;41.60;;;;;;5053361;28;20474;-72
2022/07/18 06:09:04;;;;;;;11.40;4.55;;;33.10;41.50;;;;;;5035810;28;20040;-72
2022/07/18 06:11:30;;;;;;;9.57;4.55;;;33.40;41.30;;;;;;5053888;28;20108;-74
2022/07/18 06:13:56;;;;;;;16.80;4.28;;;33.50;41.00;;;;;;5053990;28;20052;-74
2022/07/18 06:16:22;;;;;;;18.05;5.25;;;33.70;41.20;;;;;;5053502;28;20017;-74
2022/07/18 06:18:48;;;;;;;11.05;4.93;;;33.90;41.00;;;;;;5053807;28;20549;-75
2022/07/18 06:21:13;;;;;;;8.38;5.10;;;33.80;40.70;;;;;;5035821;28;20404;-72
2022/07/18 06:23:40;;;;;;;9.77;4.30;;;33.90;40.90;;;;;;5035993;28;20094;-73
2022/07/18 06:26:06;;;;;;;12.98;4.35;;;34.00;40.80;;;;;;5053530;28;20430;-75
2022/07/18 06:28:32;;;;;;;16.55;4.70;;;34.20;40.40;;;;;;5053717;28;20414;-73
2022/07/18 06:30:58;;;;;;;11.52;4.57;;;34.30;40.20;;;;;;5053290;28;20065;-73
2022/07/18 06:33:23;;;;;;;9.73;4.47;;;34.30;39.90;;;;;;5053150;28;20182;-74
2022/07/18 06:35:49;;;;;;;11.35;4.55;;;34.30;40.00;;;;;;5053027;28;20104;-74
2022/07/18 06:38:16;;;;;;;9.25;4.90;;;34.60;39.90;;;;;;5053258;28;20029;-72
2022/07/18 06:40:43;;;;;;;15.55;4.55;;;34.70;39.30;;;;;;5053067;28;20482;-76
2022/07/18 06:43:08;;;;;;;13.82;4.88;;;34.60;38.80;;;;;;5052978;28;20107;-74
2022/07/18 06:45:34;;;;;;;12.68;4.40;;;34.70;39.30;;;;;;5052753;28;20524;-73
2022/07/18 06:48:00;;;;;;;11.63;4.68;;;34.70;39.30;;;;;;5054084;28;20025;-75
2022/07/18 06:50:26;;;;;;;12.00;4.40;;;34.70;38.90;;;;;;5053872;28;20040;-74
2022/07/18 06:52:52;;;;;;;16.30;4.25;;;34.60;39.50;;;;;;5053233;28;20029;-73
2022/07/18 06:55:18;;;;;;;8.02;4.50;;;34.70;39.40;;;;;;5052580;28;20052;-73
2022/07/18 06:57:44;;;;;;;11.77;4.85;;;34.80;39.40;;;;;;5052573;28;20132;-76
2022/07/18 07:00:13;;;;;;;15.00;4.53;;;34.80;38.90;;;;;;5052768;28;20024;-72
2022/07/18 07:02:47;;;;;;;9.20;4.20;;;34.90;38.90;;;;;;5052988;28;20100;-75
2022/07/18 07:05:14;;;;;;;11.05;4.57;;;34.90;38.90;;;;;;5052725;28;20035;-75
2022/07/18 07:07:41;;;;;;;16.83;5.82;;;35.00;38.90;;;;;;5052655;28;20035;-75
2022/07/18 07:10:07;;;;;;;17.42;4.72;;;35.00;38.70;;;;;;5052495;28;20048;-74
2022/07/18 07:12:49;;;;;;;11.57;4.43;;;35.10;39.30;;;;;;5052740;28;20028;-74
2022/07/18 07:15:18;;;;;;;12.03;5.00;;;35.10;39.80;;;;;;5052500;28;20029;-74
2022/07/18 07:17:43;;;;;;;13.95;4.57;;;35.20;38.50;;;;;;5052625;28;20013;-75
2022/07/18 07:20:10;;;;;;;16.08;5.38;;;35.40;38.50;;;;;;5052542;28;20397;-75
2022/07/18 07:22:48;;;;;;;14.73;4.55;;;35.60;38.70;;;;;;5052677;28;20024;-75
2022/07/18 07:25:15;;;;;;;11.05;4.47;;;35.60;38.30;;;;;;5052218;28;20025;-77
2022/07/18 07:27:41;;;;;;;12.85;4.57;;;35.60;38.30;;;;;;5052678;28;20373;-75
2022/07/18 07:30:08;;;;;;;14.15;4.82;;;35.70;38.40;;;;;;5052498;28;20017;-75
2022/07/18 07:32:35;;;;;;;13.73;4.40;;;35.80;38.50;;;;;;5034382;28;20032;-76
2022/07/18 07:35:06;;;;;;;14.73;4.30;;;35.80;38.10;;;;;;5052636;28;20041;-74
2022/07/18 07:37:35;;;;;;;7.03;3.97;;;35.90;38.30;;;;;;5052699;28;20029;-75
2022/07/18 07:40:01;;;;;;;11.23;4.53;;;35.90;38.30;;;;;;5053150;28;20032;-75
2022/07/18 07:42:26;;;;;;;10.15;4.72;;;36.10;38.30;;;;;;5052149;28;20021;-73
2022/07/18 07:44:52;;;;;;;13.85;5.38;;;36.10;38.10;;;;;;5052210;28;20021;-75
2022/07/18 07:47:18;;;;;;;15.30;5.05;;;35.90;38.30;;;;;;5054660;28;20032;-74
2022/07/18 07:49:43;;;;;;;11.45;4.18;;;35.80;38.30;;;;;;5056549;28;20033;-74
2022/07/18 07:52:11;;;;;;;10.13;3.88;;;35.90;38.30;;;;;;5056494;28;20039;-76
2022/07/18 07:54:37;;;;;;;11.20;4.43;;;35.90;38.40;;;;;;5057147;28;20036;-76
2022/07/18 07:57:03;;;;;;;17.77;4.93;;;35.80;38.60;;;;;;5056556;28;20045;-74
2022/07/18 07:59:30;;;;;;;9.70;4.82;;;35.80;38.70;;;;;;5056397;28;20025;-75
2022/07/18 08:01:55;;;;;;;12.98;5.10;;;35.80;38.50;;;;;;5056051;28;20401;-74
2022/07/18 08:04:21;;;;;;;9.02;4.47;;;35.70;38.70;;;;;;5056057;28;20466;-74
2022/07/18 08:06:47;;;;;;;11.68;4.47;;;35.60;38.70;;;;;;5056067;28;20025;-72
2022/07/18 08:09:13;;;;;;;27.77;5.88;;;35.60;38.90;;;;;;5056064;28;20532;-72
2022/07/18 08:11:39;;;;;;;26.17;5.93;;;35.50;38.90;;;;;;5055755;28;20100;-73
2022/07/18 08:14:04;;;;;;;28.83;5.22;;;35.40;39.10;;;;;;5055418;28;20108;-74
2022/07/18 08:16:30;;;;;;;19.95;4.72;;;35.40;39.20;;;;;;5055689;28;20025;-74
2022/07/18 08:18:56;;;;;;;10.00;4.50;;;35.30;39.50;;;;;;5055730;28;20017;-74
2022/07/18 08:21:22;;;;;;;21.35;5.93;;;35.30;39.30;;;;;;5055505;28;20090;-73
2022/07/18 08:23:48;;;;;;;14.02;4.70;;;35.20;39.60;;;;;;5037477;28;20027;-73
2022/07/18 08:26:14;;;;;;;11.05;3.90;;;35.10;39.80;;;;;;5055505;28;20035;-73
2022/07/18 08:28:39;;;;;;;20.52;5.45;;;35.00;40.00;;;;;;5055638;28;20029;-73
2022/07/18 08:31:05;;;;;;;18.90;4.53;;;35.00;40.30;;;;;;5055721;28;20075;-73
2022/07/18 08:33:31;;;;;;;23.17;4.65;;;34.90;40.20;;;;;;5055477;28;20046;-73
2022/07/18 08:35:57;;;;;;;6.30;4.05;;;34.80;40.40;;;;;;5056102;28;20111;-74
2022/07/18 08:38:22;;;;;;;9.73;3.92;;;34.80;40.30;;;;;;5055562;28;20424;-75
2022/07/18 08:40:51;;;;;;;14.95;4.35;;;34.70;40.60;;;;;;5055653;28;20029;-73
2022/07/18 08:43:18;;;;;;;11.15;4.30;;;34.60;40.80;;;;;;5055129;28;20017;-73
2022/07/18 08:45:44;;;;;;;17.10;4.53;;;34.70;41.10;;;;;;5054827;28;20082;-74
2022/07/18 08:48:12;;;;;;;10.60;4.25;;;34.60;40.80;;;;;;5055275;28;20032;-73
2022/07/18 08:50:38;;;;;;;13.65;5.13;;;34.60;41.50;;;;;;5055015;28;20032;-72
2022/07/18 08:53:04;;;;;;;7.40;3.78;;;34.50;41.30;;;;;;5036867;28;20024;-75
2022/07/18 08:55:30;;;;;;;6.97;4.25;;;34.60;41.20;;;;;;5053557;28;20148;-75
2022/07/18 08:57:57;;;;;;;15.13;4.10;;;34.60;41.20;;;;;;5035699;28;20508;-74
2022/07/18 09:00:23;;;;;;;6.38;4.20;;;34.70;41.40;;;;;;5054916;28;20033;-73
2022/07/18 09:03:03;;;;;;;8.52;4.40;;;34.70;41.20;;;;;;5054629;28;20071;-75
2022/07/18 09:05:30;;;;;;;11.40;4.25;;;34.60;41.30;;;;;;5054557;28;20165;-73
2022/07/18 09:08:12;;;;;;;8.30;4.45;;;34.70;41.10;;;;;;5054521;28;20023;-74
2022/07/18 09:10:51;;;;;;;7.85;4.13;;;34.70;42.10;;;;;;5054780;28;20104;-74
2022/07/18 09:13:21;;;;;;;7.57;3.90;;;34.70;41.80;;;;;;5054857;28;20025;-76
2022/07/18 09:15:57;;;;;;;10.13;4.20;;;34.60;40.90;;;;;;5054657;28;20029;-73
2022/07/18 09:18:52;;;;;;;6.28;3.65;;;34.50;41.00;;;;;;5054515;28;20096;-74
2022/07/18 09:21:22;;;;;;;9.18;4.25;;;34.50;41.10;;;;;;5032992;28;20047;-74
2022/07/18 09:23:50;;;;;;;9.95;4.50;;;34.50;40.90;;;;;;5054593;28;20024;-73
2022/07/18 09:26:39;;;;;;;12.50;4.72;;;34.50;41.00;;;;;;5054585;28;20033;-74
2022/07/18 09:29:05;;;;;;;9.10;4.10;;;34.60;41.60;;;;;;5054706;28;20017;-76
2022/07/18 09:31:31;;;;;;;7.00;3.95;;;34.60;40.60;;;;;;5054508;28;20036;-77
2022/07/18 09:34:02;;;;;;;10.80;4.50;;;34.60;40.30;;;;;;5036265;28;20037;-73
2022/07/18 09:36:30;;;;;;;12.95;4.63;;;34.60;40.40;;;;;;5036412;28;20029;-73
2022/07/18 09:38:56;;;;;;;13.82;4.50;;;34.60;40.60;;;;;;5054904;28;20025;-75
2022/07/18 09:41:26;;;;;;;13.90;4.70;;;34.70;40.40;;;;;;5054723;28;20060;-72
2022/07/18 09:43:52;;;;;;;8.48;4.50;;;34.80;40.20;;;;;;5054249;28;20028;-72
2022/07/18 09:46:17;;;;;;;11.98;4.97;;;34.80;40.10;;;;;;5054369;28;20074;-75
2022/07/18 09:48:43;;;;;;;8.75;4.50;;;34.80;40.00;;;;;;5054489;28;20367;-76
2022/07/18 09:51:10;;;;;;;9.20;4.63;;;34.90;40.20;;;;;;5054574;28;20056;-74
2022/07/18 09:53:38;;;;;;;9.13;4.47;;;35.00;39.60;;;;;;5054897;28;20056;-75
2022/07/18 09:56:11;;;;;;;9.35;4.43;;;35.00;39.20;;;;;;5054301;28;20045;-75
2022/07/18 09:58:50;;;;;;;9.52;4.15;;;35.10;40.10;;;;;;5054482;28;20104;-74
2022/07/18 10:01:16;;;;;;;8.15;4.47;;;35.10;39.00;;;;;;5054269;28;20473;-75
2022/07/18 10:03:42;;;;;;;7.50;4.25;;;35.00;38.70;;;;;;5054103;28;20025;-77
2022/07/18 10:06:08;;;;;;;7.32;3.60;;;35.10;39.00;;;;;;5053510;28;20036;-74
2022/07/18 10:08:35;;;;;;;11.13;4.07;;;35.20;38.40;;;;;;5053622;28;20108;-74
2022/07/18 10:11:04;;;;;;;10.07;4.15;;;35.20;37.90;;;;;;5053488;28;20021;-75
2022/07/18 10:13:31;;;;;;;11.48;4.45;;;35.20;38.20;;;;;;5053699;28;20040;-73
2022/07/18 10:15:57;;;;;;;11.55;4.28;;;35.20;38.20;;;;;;5053520;28;20159;-73
2022/07/18 10:18:27;;;;;;;9.85;4.40;;;35.20;38.50;;;;;;5053933;28;20108;-74
2022/07/18 10:21:01;;;;;;;8.18;4.35;;;35.20;38.20;;;;;;5054116;28;20130;-72
2022/07/18 10:23:33;;;;;;;9.75;4.18;;;35.30;38.80;;;;;;5054491;28;20025;-74
2022/07/18 10:26:14;;;;;;;10.02;4.70;;;35.30;38.50;;;;;;5054971;28;20036;-75
2022/07/18 10:28:55;;;;;;;10.35;4.50;;;35.40;38.70;;;;;;5054780;28;20039;-75
2022/07/18 10:31:23;;;;;;;7.72;4.80;;;35.50;38.10;;;;;;5054262;28;20063;-76
2022/07/18 10:33:49;;;;;;;11.65;4.70;;;35.60;38.10;;;;;;5054326;28;20033;-77
2022/07/18 10:36:23;;;;;;;9.75;4.35;;;35.60;38.10;;;;;;5054563;28;20029;-75
2022/07/18 10:39:14;;;;;;;14.90;4.10;;;35.70;38.20;;;;;;5053708;28;20029;-76
2022/07/18 10:41:43;;;;;;;10.70;4.18;;;35.70;38.00;;;;;;5053749;28;20044;-76
2022/07/18 10:44:26;;;;;;;6.10;3.55;;;35.80;38.10;;;;;;5053578;28;20045;-75
2022/07/18 10:49:53;;;;;;;11.18;5.15;;;35.90;38.10;;;;;;5053195;28;20144;-75
2022/07/18 10:52:39;;;;;;;18.25;4.80;;;36.00;38.00;;;;;;5053204;28;20025;-73
2022/07/18 10:55:08;;;;;;;13.18;5.47;;;36.10;37.30;;;;;;5035972;28;20462;-75
2022/07/18 10:57:49;;;;;;;16.02;4.75;;;36.10;37.00;;;;;;5052693;28;20071;-72
2022/07/18 11:00:16;;;;;;;13.82;4.32;;;36.20;37.10;;;;;;5053383;28;20334;-75
2022/07/18 11:02:44;;;;;;;9.60;4.60;;;36.20;36.50;;;;;;5053162;28;20028;-77
2022/07/18 11:05:25;;;;;;;14.65;4.55;;;36.30;36.70;;;;;;5054037;28;20024;-74
2022/07/18 11:08:14;;;;;;;13.80;4.35;;;36.30;36.90;;;;;;5053605;28;20029;-76
2022/07/18 11:10:44;;;;;;;7.25;4.43;;;36.30;35.90;;;;;;5037745;28;20095;-77
2022/07/18 11:13:24;;;;;;;9.73;4.00;;;36.40;36.20;;;;;;5052592;28;20028;-76
2022/07/18 11:15:55;;;;;;;15.65;4.45;;;36.40;36.40;;;;;;5052559;28;20037;-76
2022/07/18 11:18:20;;;;;;;11.57;4.40;;;36.50;36.00;;;;;;5052819;28;20029;-76
2022/07/18 11:20:47;;;;;;;10.73;4.20;;;36.50;35.50;;;;;;5052275;28;20036;-75
2022/07/18 11:23:31;;;;;;;7.55;3.97;;;36.50;35.10;;;;;;5052467;28;20029;-76
2022/07/18 11:25:58;;;;;;;12.30;4.05;;;36.50;33.80;;;;;;5052993;28;20048;-75
2022/07/18 11:28:26;;;;;;;8.73;3.65;;;36.60;33.70;;;;;;5052934;28;20017;-75
2022/07/18 11:31:03;;;;;;;7.68;3.83;;;36.60;33.40;;;;;;5052585;28;20035;-75
2022/07/18 11:33:32;;;;;;;9.02;4.32;;;36.60;32.80;;;;;;5052734;28;20033;-74
2022/07/18 11:36:10;;;;;;;10.98;3.83;;;36.60;33.00;;;;;;5052560;28;20032;-74
2022/07/18 11:38:39;;;;;;;6.45;3.40;;;36.60;33.10;;;;;;5053247;28;20017;-74
2022/07/18 11:41:06;;;;;;;6.75;3.50;;;36.70;32.20;;;;;;5053665;28;20025;-75
2022/07/18 11:43:32;;;;;;;7.28;3.60;;;36.70;31.90;;;;;;5052787;28;20099;-76
2022/07/18 11:46:01;;;;;;;6.13;3.63;;;36.70;32.10;;;;;;5052723;28;20107;-74
2022/07/18 11:48:27;;;;;;;8.35;3.75;;;36.80;31.60;;;;;;5052780;28;20052;-75
2022/07/18 11:50:53;;;;;;;8.35;3.63;;;36.90;31.90;;;;;;5034460;28;20477;-76
2022/07/18 11:53:18;;;;;;;7.22;3.60;;;36.90;31.50;;;;;;5052478;28;20036;-73
2022/07/18 11:55:44;;;;;;;7.03;3.30;;;37.00;31.50;;;;;;5052365;28;20504;-75
2022/07/18 11:58:12;;;;;;;8.07;3.55;;;37.00;31.40;;;;;;5052385;28;20478;-74
2022/07/18 12:00:39;;;;;;;4.80;3.00;;;37.00;31.10;;;;;;5052992;28;20482;-75
2022/07/18 12:03:14;;;;;;;8.68;4.03;;;37.00;31.00;;;;;;5052894;28;20100;-74
2022/07/18 12:05:41;;;;;;;7.57;3.47;;;37.00;30.80;;;;;;5053286;28;20461;-75
2022/07/18 12:08:29;;;;;;;6.80;3.60;;;37.10;31.00;;;;;;5052742;28;20068;-75
2022/07/18 12:11:09;;;;;;;13.65;3.40;;;37.20;30.60;;;;;;5052632;28;20033;-76
2022/07/18 12:13:57;;;;;;;9.27;3.30;;;37.20;30.70;;;;;;5052392;28;20035;-74
2022/07/18 12:16:25;;;;;;;7.70;3.00;;;37.20;30.30;;;;;;5052597;28;20029;-76
2022/07/18 12:18:53;;;;;;;4.45;2.72;;;37.20;30.50;;;;;;5052458;28;20021;-75
2022/07/18 12:21:19;;;;;;;8.05;2.90;;;37.30;30.40;;;;;;5052524;28;20105;-77
2022/07/18 12:23:45;;;;;;;8.07;2.92;;;37.20;30.40;;;;;;5052069;28;20036;-75
2022/07/18 12:26:29;;;;;;;7.68;3.10;;;37.20;30.40;;;;;;5052195;28;20021;-74
2022/07/18 12:29:08;;;;;;;5.10;3.03;;;37.30;30.00;;;;;;5052289;28;20033;-74
2022/07/18 12:31:37;;;;;;;6.45;3.00;;;37.30;30.20;;;;;;5052385;28;20055;-74
2022/07/18 12:34:11;;;;;;;6.10;2.95;;;37.30;30.30;;;;;;5055251;28;20489;-76
2022/07/18 12:36:57;;;;;;;7.63;2.88;;;37.30;30.30;;;;;;5055760;28;20029;-77
2022/07/18 12:39:28;;;;;;;9.23;3.30;;;37.40;30.00;;;;;;5055898;28;20025;-75
2022/07/18 12:41:54;;;;;;;6.90;3.20;;;37.50;30.20;;;;;;5056033;28;20027;-74
2022/07/18 12:44:20;;;;;;;5.00;3.30;;;37.50;30.30;;;;;;5056092;28;20079;-75
2022/07/18 12:46:46;;;;;;;5.38;2.55;;;37.60;30.20;;;;;;5055300;28;20428;-74
2022/07/18 12:49:11;;;;;;;5.75;2.58;;;37.70;30.20;;;;;;5037716;28;20029;-77
2022/07/18 12:51:37;;;;;;;5.85;2.53;;;37.70;30.00;;;;;;5055797;28;20517;-75
2022/07/18 12:54:03;;;;;;;6.43;2.85;;;37.70;29.90;;;;;;5056342;28;20033;-75